Perseverance — WDD5594 — position and weather

sailwx.info

Track history (hours):
 
Tides and Currents Weather Stations Pressure Air Temp Water Temp Dewpoint Dewpoint Depression Visibility Wind Speed Wind Dir Waves Ship Positions

Perseverance

Owner: Cooper, Mark E, Toledo, OR. More information available from US FCC via Universal Licensing System and Coast Guard Vessel Documentation Center.

Last reported at 2017-Nov-07 07:24 UTC. Time now 2017-Nov-23 15:12 UTC.
Position N 45°28' W 124°18'.
Warning: this ship's position is 16 days out of date.

Type: Fishing. MMSI: 367618000.

Date/timePositionNaut miles runAvg speedWind from/ knotsBaromVisibWave heightAir tempDewpointWater temp
2017-Nov-07 07:24N 45°28' W 124°18'3 6.5
2017-Nov-07 06:59N 45°30' W 124°19'3 6.0
2017-Nov-07 06:30N 45°33' W 124°20'3 6.5
2017-Nov-07 06:00N 45°36' W 124°20'3 6.8
2017-Nov-07 05:30N 45°40' W 124°21'3 6.7
2017-Nov-07 05:00N 45°43' W 124°22'4 7.1
2017-Nov-07 04:31N 45°47' W 124°23'3 7.0
2017-Nov-07 04:00N 45°50' W 124°24'25 7.0
2017-Nov-07 00:28N 46°14' W 124°32'4 8.3
2017-Nov-07 00:00N 46°18' W 124°33'4 8.5
2017-Nov-06 23:30N 46°22' W 124°34'4 8.2
2017-Nov-06 23:00N 46°26' W 124°32'3 6.9
2017-Nov-06 22:30N 46°29' W 124°30'3 5.2
2017-Nov-06 22:00N 46°32' W 124°31'3 5.6
2017-Nov-06 21:30N 46°34' W 124°34'4 7.6
2017-Nov-06 21:00N 46°32' W 124°39'4 6.3
2017-Nov-06 20:23N 46°36' W 124°39'9 0.5
2017-Nov-06 02:30N 46°31' W 124°28'3 5.2
2017-Nov-06 02:00N 46°29' W 124°25'3 5.9
2017-Nov-06 01:30N 46°27' W 124°23'4 8.5
2017-Nov-06 01:00N 46°24' W 124°19'4 8.4
2017-Nov-06 00:30N 46°21' W 124°15'4 8.3
2017-Nov-06 00:00N 46°17' W 124°11'612.6
2017-Nov-05 23:30N 46°15' W 124°02'2 3.7
2017-Nov-05 23:00N 46°15' W 123°60'510.3
2017-Nov-05 22:30N 46°11' W 123°54'2 3.3
2017-Nov-05 22:00N 46°11' W 123°52'0 0.0
2017-Nov-05 21:30N 46°11' W 123°52'0 0.0
2017-Nov-05 21:00N 46°11' W 123°52'0 0.0
2017-Nov-05 20:25N 46°11' W 123°52'0 0.0
2017-Nov-05 20:00N 46°11' W 123°52'0 0.0
2017-Nov-05 19:30N 46°11' W 123°52'0 0.0
2017-Nov-05 19:00N 46°11' W 123°52'0 0.0
2017-Nov-05 18:30N 46°11' W 123°52'0 0.0
2017-Nov-05 18:00N 46°11' W 123°52'0 0.0
2017-Nov-05 17:30N 46°11' W 123°52'0 0.0
2017-Nov-05 17:00N 46°11' W 123°52'3 6.4
2017-Nov-05 16:30N 46°12' W 123°56'4 8.4
2017-Nov-05 16:00N 46°15' W 124°01'4 7.2
2017-Nov-05 15:30N 46°15' W 124°06'2 4.6
2017-Nov-05 15:00N 46°16' W 124°09'2 4.5
2017-Nov-05 14:30N 46°18' W 124°11'1 2.0
2017-Nov-05 14:00N 46°18' W 124°10'2 4.1
2017-Nov-05 13:31N 46°20' W 124°09'4 8.2
2017-Nov-05 13:01N 46°24' W 124°11'4 8.0
2017-Nov-05 12:30N 46°28' W 124°12'4 7.5
2017-Nov-05 12:00N 46°31' W 124°13'4 7.3
2017-Nov-05 11:30N 46°35' W 124°15'4 7.3
2017-Nov-05 11:00N 46°39' W 124°16'4 7.8
2017-Nov-05 10:30N 46°42' W 124°17'4 8.0
2017-Nov-05 10:00N 46°46' W 124°18'4 8.1
2017-Nov-05 09:30N 46°50' W 124°20'4 8.1
2017-Nov-05 09:00N 46°54' W 124°21'4 8.3
2017-Nov-05 08:30N 46°58' W 124°23'9 0.2
2017-Nov-03 11:16N 46°60' W 124°35'2 8.7
2017-Nov-03 11:00N 46°58' W 124°34'4 8.2
2017-Nov-03 10:30N 46°54' W 124°32'4 8.1
2017-Nov-03 10:00N 46°50' W 124°29'4 8.0
2017-Nov-03 09:30N 46°47' W 124°27'4 7.8
2017-Nov-03 09:00N 46°43' W 124°25'4 7.6
2017-Nov-03 08:30N 46°39' W 124°23'4 7.6
2017-Nov-03 08:00N 46°36' W 124°21'4 7.6
2017-Nov-03 07:30N 46°32' W 124°19'4 7.2
2017-Nov-03 07:00N 46°29' W 124°17'4 7.1
2017-Nov-03 06:30N 46°26' W 124°15'3 6.7
2017-Nov-03 06:00N 46°22' W 124°14'3 6.8
2017-Nov-03 05:30N 46°19' W 124°12'3 6.7
2017-Nov-03 05:00N 46°16' W 124°10'2 5.0
2017-Nov-03 04:30N 46°15' W 124°06'3 6.7
2017-Nov-03 04:00N 46°15' W 124°02'4 8.1
2017-Nov-03 03:31N 46°13' W 123°57'5 9.4
2017-Nov-03 03:01N 46°12' W 123°50'0 0.1
2017-Nov-03 02:30N 46°12' W 123°50'0 0.1
2017-Nov-03 02:00N 46°12' W 123°50'1 2.0
2017-Nov-03 01:30N 46°11' W 123°52'0 0.0
2017-Nov-03 01:00N 46°11' W 123°52'0 0.0
2017-Nov-03 00:30N 46°11' W 123°52'0 0.0
2017-Nov-03 00:00N 46°11' W 123°52'0 0.0
2017-Nov-02 23:30N 46°11' W 123°52'0 0.0
2017-Nov-02 23:00N 46°11' W 123°52'0 0.0
2017-Nov-02 22:30N 46°11' W 123°52'0 0.0
2017-Nov-02 22:00N 46°11' W 123°52'0 0.0
2017-Nov-02 21:30N 46°11' W 123°52'0 0.0
2017-Nov-02 21:00N 46°11' W 123°52'0 0.0
2017-Nov-02 20:30N 46°11' W 123°52'0 0.0
2017-Nov-02 20:00N 46°11' W 123°52'0 0.0
2017-Nov-02 19:30N 46°11' W 123°52'0 0.0
2017-Nov-02 19:00N 46°11' W 123°52'0 0.0
2017-Nov-02 18:30N 46°11' W 123°52'0 0.0
2017-Nov-02 18:00N 46°11' W 123°52'0 0.0
2017-Nov-02 17:30N 46°11' W 123°52'0 0.0
2017-Nov-02 17:00N 46°11' W 123°52'0 0.0
2017-Nov-02 16:30N 46°11' W 123°52'0 0.0
2017-Nov-02 16:00N 46°11' W 123°52'0 0.0
2017-Nov-02 15:30N 46°11' W 123°52'0 0.0
2017-Nov-02 15:00N 46°11' W 123°52'0 0.0
2017-Nov-02 14:30N 46°11' W 123°52'0 0.0
2017-Nov-02 14:00N 46°11' W 123°52'0 0.0
2017-Nov-02 13:30N 46°11' W 123°52'3 5.1
2017-Nov-02 13:00N 46°12' W 123°55'3 5.6
2017-Nov-02 12:30N 46°14' W 123°58'3 5.1
2017-Nov-02 12:00N 46°15' W 124°01'2 4.7
2017-Nov-02 11:30N 46°15' W 124°05'2 4.3
2017-Nov-02 11:00N 46°16' W 124°08'4 8.1
2017-Nov-02 10:30N 46°20' W 124°10'4 8.3
2017-Nov-02 10:00N 46°24' W 124°12'4 8.0
2017-Nov-02 09:30N 46°27' W 124°14'4 8.0
2017-Nov-02 09:00N 46°31' W 124°16'612.6
2017-Nov-02 08:30N 46°37' W 124°19'2 3.8
2017-Nov-02 08:00N 46°39' W 124°20'4 8.1
2017-Nov-02 07:30N 46°43' W 124°22'4 8.1
2017-Nov-02 07:00N 46°46' W 124°24'4 8.1
2017-Nov-02 06:30N 46°50' W 124°26'4 7.7
2017-Nov-02 06:00N 46°54' W 124°28'4 7.8
2017-Nov-02 05:30N 46°58' W 124°30'2 0.1
2017-Nov-01 02:00N 46°55' W 124°29'3 6.5
2017-Nov-01 01:30N 46°52' W 124°27'4 7.6
2017-Nov-01 01:00N 46°49' W 124°25'4 8.4
2017-Nov-01 00:30N 46°45' W 124°23'4 8.6
2017-Nov-01 00:00N 46°41' W 124°21'4 8.7
2017-Oct-31 23:31N 46°37' W 124°19'4 8.7
2017-Oct-31 23:00N 46°33' W 124°16'4 8.8
2017-Oct-31 22:30N 46°28' W 124°14'4 8.9
2017-Oct-31 22:00N 46°24' W 124°12'4 8.5
2017-Oct-31 21:30N 46°20' W 124°10'4 8.2
2017-Oct-31 21:00N 46°16' W 124°08'4 7.8
2017-Oct-31 20:30N 46°15' W 124°02'5 9.6
2017-Oct-31 20:00N 46°13' W 123°57'4 5.0
2017-Oct-31 19:18N 46°11' W 123°52'0 0.0
2017-Oct-31 19:00N 46°11' W 123°52'0 0.0
2017-Oct-31 18:31N 46°11' W 123°52'0 0.0
2017-Oct-31 18:00N 46°11' W 123°52'0 0.0
2017-Oct-31 17:30N 46°11' W 123°52'0 0.0
2017-Oct-31 17:00N 46°11' W 123°52'0 0.0
2017-Oct-31 16:30N 46°11' W 123°52'0 0.0
2017-Oct-31 16:00N 46°11' W 123°52'0 0.0
2017-Oct-31 15:30N 46°11' W 123°52'0 0.0
2017-Oct-31 15:00N 46°11' W 123°52'0 0.0
2017-Oct-31 14:30N 46°11' W 123°52'0 0.0
2017-Oct-31 14:00N 46°11' W 123°52'0 0.7
2017-Oct-31 13:30N 46°11' W 123°52'3 6.5
2017-Oct-31 13:00N 46°13' W 123°57'4 7.1
2017-Oct-31 12:30N 46°15' W 124°00'3 6.9
2017-Oct-31 12:00N 46°15' W 124°05'2 4.8
2017-Oct-31 11:30N 46°17' W 124°08'3 6.0
2017-Oct-31 11:00N 46°20' W 124°10'4 8.3
2017-Oct-31 10:30N 46°24' W 124°12'4 7.9
2017-Oct-31 10:00N 46°27' W 124°13'4 7.9
2017-Oct-31 09:30N 46°31' W 124°15'4 7.9
2017-Oct-31 09:00N 46°35' W 124°16'4 7.8
2017-Oct-31 08:30N 46°39' W 124°18'4 7.9
2017-Oct-31 08:00N 46°42' W 124°20'4 8.0
2017-Oct-31 07:30N 46°46' W 124°22'4 8.1
2017-Oct-31 07:00N 46°50' W 124°24'4 7.8
2017-Oct-31 06:30N 46°54' W 124°25'6 8.0
2017-Oct-31 05:49N 46°59' W 124°27'73 4.8
2017-Oct-30 14:39N 48°03' W 125°19'6 6.0
2017-Oct-30 13:40N 47°58' W 125°14'65 6.7
2017-Oct-30 03:56N 47°01' W 124°29'4 8.4
2017-Oct-30 03:30N 46°57' W 124°27'6 8.4
2017-Oct-30 02:47N 46°52' W 124°24'2 8.4
2017-Oct-30 02:30N 46°49' W 124°23'6 8.1
2017-Oct-30 01:49N 46°44' W 124°21'2 7.8
2017-Oct-30 01:30N 46°42' W 124°20'4 7.8
2017-Oct-30 01:00N 46°38' W 124°18'4 8.0
2017-Oct-30 00:30N 46°34' W 124°17'4 7.6
2017-Oct-30 00:00N 46°30' W 124°16'4 7.8
2017-Oct-29 23:30N 46°26' W 124°14'4 7.3
2017-Oct-29 23:00N 46°23' W 124°13'3 5.8
2017-Oct-29 22:30N 46°21' W 124°10'4 8.0
2017-Oct-29 22:00N 46°17' W 124°08'4 8.3
2017-Oct-29 21:30N 46°15' W 124°03'510.5
2017-Oct-29 21:00N 46°12' W 123°56'3 6.9
2017-Oct-29 20:30N 46°11' W 123°52'0 0.0
2017-Oct-29 20:00N 46°11' W 123°52'0 0.0
2017-Oct-29 18:14N 46°11' W 123°52'0 0.2
2017-Oct-29 18:00N 46°11' W 123°52'0 0.0
2017-Oct-29 17:30N 46°11' W 123°52'0 0.0
2017-Oct-29 17:00N 46°11' W 123°52'0 0.0
2017-Oct-29 16:30N 46°11' W 123°52'0 0.0
2017-Oct-29 16:00N 46°11' W 123°52'0 0.0
2017-Oct-29 15:30N 46°11' W 123°52'0 0.0
2017-Oct-29 15:01N 46°11' W 123°52'0 0.0
2017-Oct-29 14:30N 46°11' W 123°52'0 0.1
2017-Oct-29 14:01N 46°11' W 123°52'1 1.7
2017-Oct-29 13:30N 46°11' W 123°53'4 7.7
2017-Oct-29 13:00N 46°13' W 123°58'4 7.6
2017-Oct-29 12:29N 46°15' W 124°03'4 7.6
2017-Oct-29 12:00N 46°16' W 124°08'4 7.5
2017-Oct-29 11:30N 46°20' W 124°10'4 7.9
2017-Oct-29 11:01N 46°23' W 124°11'4 8.0
2017-Oct-29 10:30N 46°27' W 124°12'4 7.7
2017-Oct-29 10:00N 46°31' W 124°14'4 7.6
2017-Oct-29 09:30N 46°35' W 124°15'4 7.5
2017-Oct-29 09:00N 46°38' W 124°17'5 7.4
2017-Oct-29 08:21N 46°43' W 124°19'3 8.0
2017-Oct-29 08:00N 46°46' W 124°20'4 7.8
2017-Oct-29 07:31N 46°49' W 124°21'4 7.7
2017-Oct-29 07:00N 46°53' W 124°23'4 7.6
2017-Oct-29 06:31N 46°57' W 124°24'83 5.8
2017-Oct-28 16:04N 48°13' W 125°14'0 7.5
2017-Oct-28 16:00N 48°13' W 125°13'3 5.5
2017-Oct-28 15:22N 48°10' W 125°15'9 3.7
2017-Oct-28 12:55N 48°01' W 125°12'  
Track history (hours):
 
Tides and Currents Weather Stations Pressure Air Temp Water Temp Dewpoint Dewpoint Depression Visibility Wind Speed Wind Dir Waves Ship Positions

Perseverance

Owner: Cooper, Mark E, Toledo, OR. More information available from US FCC via Universal Licensing System and Coast Guard Vessel Documentation Center.

Last reported at 2017-Nov-07 07:24 UTC. Time now 2017-Nov-23 15:12 UTC.
Position N 45°28' W 124°18'.
Warning: this ship's position is 16 days out of date.

Type: Fishing. MMSI: 367618000.

Date/timePositionNaut miles runAvg speedWind from/ knotsBaromVisibWave heightAir tempDewpointWater temp
2017-Nov-07 07:24N 45°28' W 124°18'3 6.5
2017-Nov-07 06:59N 45°30' W 124°19'3 6.0
2017-Nov-07 06:30N 45°33' W 124°20'3 6.5
2017-Nov-07 06:00N 45°36' W 124°20'3 6.8
2017-Nov-07 05:30N 45°40' W 124°21'3 6.7
2017-Nov-07 05:00N 45°43' W 124°22'4 7.1
2017-Nov-07 04:31N 45°47' W 124°23'3 7.0
2017-Nov-07 04:00N 45°50' W 124°24'25 7.0
2017-Nov-07 00:28N 46°14' W 124°32'4 8.3
2017-Nov-07 00:00N 46°18' W 124°33'4 8.5
2017-Nov-06 23:30N 46°22' W 124°34'4 8.2
2017-Nov-06 23:00N 46°26' W 124°32'3 6.9
2017-Nov-06 22:30N 46°29' W 124°30'3 5.2
2017-Nov-06 22:00N 46°32' W 124°31'3 5.6
2017-Nov-06 21:30N 46°34' W 124°34'4 7.6
2017-Nov-06 21:00N 46°32' W 124°39'4 6.3
2017-Nov-06 20:23N 46°36' W 124°39'9 0.5
2017-Nov-06 02:30N 46°31' W 124°28'3 5.2
2017-Nov-06 02:00N 46°29' W 124°25'3 5.9
2017-Nov-06 01:30N 46°27' W 124°23'4 8.5
2017-Nov-06 01:00N 46°24' W 124°19'4 8.4
2017-Nov-06 00:30N 46°21' W 124°15'4 8.3
2017-Nov-06 00:00N 46°17' W 124°11'612.6
2017-Nov-05 23:30N 46°15' W 124°02'2 3.7
2017-Nov-05 23:00N 46°15' W 123°60'510.3
2017-Nov-05 22:30N 46°11' W 123°54'2 3.3
2017-Nov-05 22:00N 46°11' W 123°52'0 0.0
2017-Nov-05 21:30N 46°11' W 123°52'0 0.0
2017-Nov-05 21:00N 46°11' W 123°52'0 0.0
2017-Nov-05 20:25N 46°11' W 123°52'0 0.0
2017-Nov-05 20:00N 46°11' W 123°52'0 0.0
2017-Nov-05 19:30N 46°11' W 123°52'0 0.0
2017-Nov-05 19:00N 46°11' W 123°52'0 0.0
2017-Nov-05 18:30N 46°11' W 123°52'0 0.0
2017-Nov-05 18:00N 46°11' W 123°52'0 0.0
2017-Nov-05 17:30N 46°11' W 123°52'0 0.0
2017-Nov-05 17:00N 46°11' W 123°52'3 6.4
2017-Nov-05 16:30N 46°12' W 123°56'4 8.4
2017-Nov-05 16:00N 46°15' W 124°01'4 7.2
2017-Nov-05 15:30N 46°15' W 124°06'2 4.6
2017-Nov-05 15:00N 46°16' W 124°09'2 4.5
2017-Nov-05 14:30N 46°18' W 124°11'1 2.0
2017-Nov-05 14:00N 46°18' W 124°10'2 4.1
2017-Nov-05 13:31N 46°20' W 124°09'4 8.2
2017-Nov-05 13:01N 46°24' W 124°11'4 8.0
2017-Nov-05 12:30N 46°28' W 124°12'4 7.5
2017-Nov-05 12:00N 46°31' W 124°13'4 7.3
2017-Nov-05 11:30N 46°35' W 124°15'4 7.3
2017-Nov-05 11:00N 46°39' W 124°16'4 7.8
2017-Nov-05 10:30N 46°42' W 124°17'4 8.0
2017-Nov-05 10:00N 46°46' W 124°18'4 8.1
2017-Nov-05 09:30N 46°50' W 124°20'4 8.1
2017-Nov-05 09:00N 46°54' W 124°21'4 8.3
2017-Nov-05 08:30N 46°58' W 124°23'9 0.2
2017-Nov-03 11:16N 46°60' W 124°35'2 8.7
2017-Nov-03 11:00N 46°58' W 124°34'4 8.2
2017-Nov-03 10:30N 46°54' W 124°32'4 8.1
2017-Nov-03 10:00N 46°50' W 124°29'4 8.0
2017-Nov-03 09:30N 46°47' W 124°27'4 7.8
2017-Nov-03 09:00N 46°43' W 124°25'4 7.6
2017-Nov-03 08:30N 46°39' W 124°23'4 7.6
2017-Nov-03 08:00N 46°36' W 124°21'4 7.6
2017-Nov-03 07:30N 46°32' W 124°19'4 7.2
2017-Nov-03 07:00N 46°29' W 124°17'4 7.1
2017-Nov-03 06:30N 46°26' W 124°15'3 6.7
2017-Nov-03 06:00N 46°22' W 124°14'3 6.8
2017-Nov-03 05:30N 46°19' W 124°12'3 6.7
2017-Nov-03 05:00N 46°16' W 124°10'2 5.0
2017-Nov-03 04:30N 46°15' W 124°06'3 6.7
2017-Nov-03 04:00N 46°15' W 124°02'4 8.1
2017-Nov-03 03:31N 46°13' W 123°57'5 9.4
2017-Nov-03 03:01N 46°12' W 123°50'0 0.1
2017-Nov-03 02:30N 46°12' W 123°50'0 0.1
2017-Nov-03 02:00N 46°12' W 123°50'1 2.0
2017-Nov-03 01:30N 46°11' W 123°52'0 0.0
2017-Nov-03 01:00N 46°11' W 123°52'0 0.0
2017-Nov-03 00:30N 46°11' W 123°52'0 0.0
2017-Nov-03 00:00N 46°11' W 123°52'0 0.0
2017-Nov-02 23:30N 46°11' W 123°52'0 0.0
2017-Nov-02 23:00N 46°11' W 123°52'0 0.0
2017-Nov-02 22:30N 46°11' W 123°52'0 0.0
2017-Nov-02 22:00N 46°11' W 123°52'0 0.0
2017-Nov-02 21:30N 46°11' W 123°52'0 0.0
2017-Nov-02 21:00N 46°11' W 123°52'0 0.0
2017-Nov-02 20:30N 46°11' W 123°52'0 0.0
2017-Nov-02 20:00N 46°11' W 123°52'0 0.0
2017-Nov-02 19:30N 46°11' W 123°52'0 0.0
2017-Nov-02 19:00N 46°11' W 123°52'0 0.0
2017-Nov-02 18:30N 46°11' W 123°52'0 0.0
2017-Nov-02 18:00N 46°11' W 123°52'0 0.0
2017-Nov-02 17:30N 46°11' W 123°52'0 0.0
2017-Nov-02 17:00N 46°11' W 123°52'0 0.0
2017-Nov-02 16:30N 46°11' W 123°52'0 0.0
2017-Nov-02 16:00N 46°11' W 123°52'0 0.0
2017-Nov-02 15:30N 46°11' W 123°52'0 0.0
2017-Nov-02 15:00N 46°11' W 123°52'0 0.0
2017-Nov-02 14:30N 46°11' W 123°52'0 0.0
2017-Nov-02 14:00N 46°11' W 123°52'0 0.0
2017-Nov-02 13:30N 46°11' W 123°52'3 5.1
2017-Nov-02 13:00N 46°12' W 123°55'3 5.6
2017-Nov-02 12:30N 46°14' W 123°58'3 5.1
2017-Nov-02 12:00N 46°15' W 124°01'2 4.7
2017-Nov-02 11:30N 46°15' W 124°05'2 4.3
2017-Nov-02 11:00N 46°16' W 124°08'4 8.1
2017-Nov-02 10:30N 46°20' W 124°10'4 8.3
2017-Nov-02 10:00N 46°24' W 124°12'4 8.0
2017-Nov-02 09:30N 46°27' W 124°14'4 8.0
2017-Nov-02 09:00N 46°31' W 124°16'612.6
2017-Nov-02 08:30N 46°37' W 124°19'2 3.8
2017-Nov-02 08:00N 46°39' W 124°20'4 8.1
2017-Nov-02 07:30N 46°43' W 124°22'4 8.1
2017-Nov-02 07:00N 46°46' W 124°24'4 8.1
2017-Nov-02 06:30N 46°50' W 124°26'4 7.7
2017-Nov-02 06:00N 46°54' W 124°28'4 7.8
2017-Nov-02 05:30N 46°58' W 124°30'2 0.1
2017-Nov-01 02:00N 46°55' W 124°29'3 6.5
2017-Nov-01 01:30N 46°52' W 124°27'4 7.6
2017-Nov-01 01:00N 46°49' W 124°25'4 8.4
2017-Nov-01 00:30N 46°45' W 124°23'4 8.6
2017-Nov-01 00:00N 46°41' W 124°21'4 8.7
2017-Oct-31 23:31N 46°37' W 124°19'4 8.7
2017-Oct-31 23:00N 46°33' W 124°16'4 8.8
2017-Oct-31 22:30N 46°28' W 124°14'4 8.9
2017-Oct-31 22:00N 46°24' W 124°12'4 8.5
2017-Oct-31 21:30N 46°20' W 124°10'4 8.2
2017-Oct-31 21:00N 46°16' W 124°08'4 7.8
2017-Oct-31 20:30N 46°15' W 124°02'5 9.6
2017-Oct-31 20:00N 46°13' W 123°57'4 5.0
2017-Oct-31 19:18N 46°11' W 123°52'0 0.0
2017-Oct-31 19:00N 46°11' W 123°52'0 0.0
2017-Oct-31 18:31N 46°11' W 123°52'0 0.0
2017-Oct-31 18:00N 46°11' W 123°52'0 0.0
2017-Oct-31 17:30N 46°11' W 123°52'0 0.0
2017-Oct-31 17:00N 46°11' W 123°52'0 0.0
2017-Oct-31 16:30N 46°11' W 123°52'0 0.0
2017-Oct-31 16:00N 46°11' W 123°52'0 0.0
2017-Oct-31 15:30N 46°11' W 123°52'0 0.0
2017-Oct-31 15:00N 46°11' W 123°52'0 0.0
2017-Oct-31 14:30N 46°11' W 123°52'0 0.0
2017-Oct-31 14:00N 46°11' W 123°52'0 0.7
2017-Oct-31 13:30N 46°11' W 123°52'3 6.5
2017-Oct-31 13:00N 46°13' W 123°57'4 7.1
2017-Oct-31 12:30N 46°15' W 124°00'3 6.9
2017-Oct-31 12:00N 46°15' W 124°05'2 4.8
2017-Oct-31 11:30N 46°17' W 124°08'3 6.0
2017-Oct-31 11:00N 46°20' W 124°10'4 8.3
2017-Oct-31 10:30N 46°24' W 124°12'4 7.9
2017-Oct-31 10:00N 46°27' W 124°13'4 7.9
2017-Oct-31 09:30N 46°31' W 124°15'4 7.9
2017-Oct-31 09:00N 46°35' W 124°16'4 7.8
2017-Oct-31 08:30N 46°39' W 124°18'4 7.9
2017-Oct-31 08:00N 46°42' W 124°20'4 8.0
2017-Oct-31 07:30N 46°46' W 124°22'4 8.1
2017-Oct-31 07:00N 46°50' W 124°24'4 7.8
2017-Oct-31 06:30N 46°54' W 124°25'6 8.0
2017-Oct-31 05:49N 46°59' W 124°27'73 4.8
2017-Oct-30 14:39N 48°03' W 125°19'6 6.0
2017-Oct-30 13:40N 47°58' W 125°14'65 6.7
2017-Oct-30 03:56N 47°01' W 124°29'4 8.4
2017-Oct-30 03:30N 46°57' W 124°27'6 8.4
2017-Oct-30 02:47N 46°52' W 124°24'2 8.4
2017-Oct-30 02:30N 46°49' W 124°23'6 8.1
2017-Oct-30 01:49N 46°44' W 124°21'2 7.8
2017-Oct-30 01:30N 46°42' W 124°20'4 7.8
2017-Oct-30 01:00N 46°38' W 124°18'4 8.0
2017-Oct-30 00:30N 46°34' W 124°17'4 7.6
2017-Oct-30 00:00N 46°30' W 124°16'4 7.8
2017-Oct-29 23:30N 46°26' W 124°14'4 7.3
2017-Oct-29 23:00N 46°23' W 124°13'3 5.8
2017-Oct-29 22:30N 46°21' W 124°10'4 8.0
2017-Oct-29 22:00N 46°17' W 124°08'4 8.3
2017-Oct-29 21:30N 46°15' W 124°03'510.5
2017-Oct-29 21:00N 46°12' W 123°56'3 6.9
2017-Oct-29 20:30N 46°11' W 123°52'0 0.0
2017-Oct-29 20:00N 46°11' W 123°52'0 0.0
2017-Oct-29 18:14N 46°11' W 123°52'0 0.2
2017-Oct-29 18:00N 46°11' W 123°52'0 0.0
2017-Oct-29 17:30N 46°11' W 123°52'0 0.0
2017-Oct-29 17:00N 46°11' W 123°52'0 0.0
2017-Oct-29 16:30N 46°11' W 123°52'0 0.0
2017-Oct-29 16:00N 46°11' W 123°52'0 0.0
2017-Oct-29 15:30N 46°11' W 123°52'0 0.0
2017-Oct-29 15:01N 46°11' W 123°52'0 0.0
2017-Oct-29 14:30N 46°11' W 123°52'0 0.1
2017-Oct-29 14:01N 46°11' W 123°52'1 1.7
2017-Oct-29 13:30N 46°11' W 123°53'4 7.7
2017-Oct-29 13:00N 46°13' W 123°58'4 7.6
2017-Oct-29 12:29N 46°15' W 124°03'4 7.6
2017-Oct-29 12:00N 46°16' W 124°08'4 7.5
2017-Oct-29 11:30N 46°20' W 124°10'4 7.9
2017-Oct-29 11:01N 46°23' W 124°11'4 8.0
2017-Oct-29 10:30N 46°27' W 124°12'4 7.7
2017-Oct-29 10:00N 46°31' W 124°14'4 7.6
2017-Oct-29 09:30N 46°35' W 124°15'4 7.5
2017-Oct-29 09:00N 46°38' W 124°17'5 7.4
2017-Oct-29 08:21N 46°43' W 124°19'3 8.0
2017-Oct-29 08:00N 46°46' W 124°20'4 7.8
2017-Oct-29 07:31N 46°49' W 124°21'4 7.7
2017-Oct-29 07:00N 46°53' W 124°23'4 7.6
2017-Oct-29 06:31N 46°57' W 124°24'83 5.8
2017-Oct-28 16:04N 48°13' W 125°14'0 7.5
2017-Oct-28 16:00N 48°13' W 125°13'3 5.5
2017-Oct-28 15:22N 48°10' W 125°15'9 3.7
2017-Oct-28 12:55N 48°01' W 125°12'  

Dump ship's entire track history